Time;durP1;ratioP1;P1;durP2;ratioP2;P2;SDS_P1;SDS_P2;PMS_P1;PMS_P2;Temp;Humidity;BMP_temperature;BMP_pressure;BME280_temperature;BME280_humidity;BME280_pressure;Samples;Min_cycle;Max_cycle;Signal;HPM_P1;HPM_P2
2022/06/06 00:01:40;;;;;;;0.27;0.27;;;;;;;-140.05;100.00;61859.38;5091307;28;20268;-62
2022/06/06 00:04:07;;;;;;;0.40;0.40;;;;;;;-140.05;100.00;61859.38;5091717;28;20176;-62
2022/06/06 00:06:34;;;;;;;0.70;0.40;;;;;;;-140.05;100.00;61859.38;5091221;28;20625;-62
2022/06/06 00:09:00;;;;;;;0.53;0.30;;;;;;;-140.05;100.00;61859.38;5091397;28;20198;-61
2022/06/06 00:11:31;;;;;;;0.33;0.33;;;;;;;-140.05;100.00;61859.38;5091227;28;20275;-61
2022/06/06 00:13:58;;;;;;;0.43;0.43;;;;;;;-140.05;100.00;61859.38;5091171;28;20685;-61
2022/06/06 00:16:24;;;;;;;0.30;0.30;;;;;;;-140.05;100.00;61859.38;5090944;28;20196;-60
2022/06/06 00:18:51;;;;;;;0.53;0.53;;;;;;;-140.05;100.00;61859.38;5091277;28;20252;-62
2022/06/06 00:21:18;;;;;;;0.30;0.30;;;;;;;-140.05;100.00;61859.38;5091329;28;20279;-61
2022/06/06 00:23:45;;;;;;;0.40;0.40;;;;;;;-140.05;100.00;61859.38;5091721;28;20742;-61
2022/06/06 00:26:15;;;;;;;0.60;0.60;;;;;;;-140.05;100.00;61859.38;5090945;28;20227;-62
2022/06/06 00:28:44;;;;;;;0.40;0.40;;;;;;;-140.05;100.00;61859.38;5092635;28;20256;-61
2022/06/06 00:36:44;;;;;;;0.30;0.30;;;;;;;-140.05;100.00;61859.38;5091217;28;20617;-62
2022/06/06 00:39:14;;;;;;;0.50;0.50;;;;;;;-140.05;100.00;61859.38;5090970;28;20195;-62
2022/06/06 00:41:44;;;;;;;0.30;0.30;;;;;;;-140.05;100.00;61859.38;5090378;28;20283;-60
2022/06/06 00:44:16;;;;;;;0.10;0.10;;;;;;;-140.05;100.00;61859.38;5091087;28;20272;-63
2022/06/06 00:46:49;;;;;;;0.83;0.80;;;;;;;-140.05;100.00;61859.38;5090497;28;20207;-62
2022/06/06 00:49:38;;;;;;;0.60;0.50;;;;;;;-140.05;100.00;61859.38;5090667;28;20202;-62
2022/06/06 00:52:16;;;;;;;0.53;0.53;;;;;;;-140.05;100.00;61859.38;5090501;28;20194;-62
2022/06/06 00:54:46;;;;;;;0.47;0.33;;;;;;;-140.05;100.00;61859.38;5090854;28;20285;-61
2022/06/06 00:57:18;;;;;;;0.20;0.20;;;;;;;-140.05;100.00;61859.38;5090561;28;20214;-61
2022/06/06 00:59:46;;;;;;;0.20;0.20;;;;;;;-140.05;100.00;61859.38;5090180;28;20210;-61
2022/06/06 01:02:13;;;;;;;0.30;0.30;;;;;;;-140.05;100.00;61859.38;5091249;28;21004;-62
2022/06/06 01:04:41;;;;;;;0.70;0.70;;;;;;;-140.05;100.00;61859.38;5090691;28;20198;-62
2022/06/06 01:07:11;;;;;;;0.70;0.70;;;;;;;-140.05;100.00;61859.38;5090352;28;20212;-62
2022/06/06 01:09:40;;;;;;;0.50;0.50;;;;;;;-140.05;100.00;61859.38;5088996;28;20315;-61
2022/06/06 01:12:13;;;;;;;0.50;0.50;;;;;;;-140.05;100.00;61859.38;5090434;28;20256;-62
2022/06/06 01:14:48;;;;;;;0.30;0.30;;;;;;;-140.05;100.00;61859.38;5089816;28;20225;-61
2022/06/06 01:17:15;;;;;;;0.67;0.47;;;;;;;-140.05;100.00;61859.38;5090211;28;20259;-61
2022/06/06 01:19:58;;;;;;;0.70;0.70;;;;;;;-140.05;100.00;61859.38;5090441;28;20264;-62
2022/06/06 01:22:52;;;;;;;0.60;0.60;;;;;;;-140.05;100.00;61859.38;5089850;28;20318;-61
2022/06/06 01:25:47;;;;;;;0.57;0.57;;;;;;;-140.05;100.00;61859.38;5089611;28;20601;-61
2022/06/06 01:28:51;;;;;;;0.30;0.30;;;;;;;-140.05;100.00;61859.38;5089657;28;20203;-61
2022/06/06 01:31:25;;;;;;;0.50;0.50;;;;;;;-140.05;100.00;61859.38;5089503;28;20202;-62
2022/06/06 01:33:58;;;;;;;0.40;0.40;;;;;;;-140.05;100.00;61859.38;5089943;28;20201;-62
2022/06/06 01:36:29;;;;;;;0.40;0.40;;;;;;;-140.05;100.00;61859.38;5089152;28;20194;-62
2022/06/06 01:39:04;;;;;;;1.70;0.60;;;;;;;-140.05;100.00;61859.38;5089717;28;20195;-62
2022/06/06 01:42:08;;;;;;;1.00;0.53;;;;;;;-140.05;100.00;61859.38;5089555;28;20825;-61
2022/06/06 01:44:45;;;;;;;0.70;0.47;;;;;;;-140.05;100.00;61859.38;5089972;28;20565;-66
2022/06/06 01:47:20;;;;;;;0.30;0.30;;;;;;;-140.05;100.00;61859.38;5089574;28;20224;-64
2022/06/06 01:49:47;;;;;;;1.63;0.57;;;;;;;-140.05;100.00;61859.38;5089649;28;20232;-62
2022/06/06 01:52:16;;;;;;;1.00;0.90;;;;;;;-140.05;100.00;61859.38;5089620;28;20195;-61
2022/06/06 01:54:43;;;;;;;0.60;0.60;;;;;;;-140.05;100.00;61859.38;5088953;28;20202;-66
2022/06/06 01:57:14;;;;;;;1.63;1.40;;;;;;;-140.05;100.00;61859.38;5089120;28;20744;-63
2022/06/06 01:59:42;;;;;;;1.23;1.13;;;;;;;-140.05;100.00;61859.38;5089822;28;20233;-67
2022/06/06 02:02:09;;;;;;;0.97;0.97;;;;;;;-140.05;100.00;61859.38;5089416;28;20260;-66
2022/06/06 02:04:36;;;;;;;0.90;0.90;;;;;;;-140.05;100.00;61859.38;5088590;28;20179;-68
2022/06/06 02:07:03;;;;;;;0.83;0.83;;;;;;;-140.05;100.00;61859.38;5089766;28;20180;-68
2022/06/06 02:09:32;;;;;;;0.57;0.57;;;;;;;-140.05;100.00;61859.38;5089415;28;20702;-68
2022/06/06 02:12:00;;;;;;;0.70;0.70;;;;;;;-140.05;100.00;61859.38;5089489;28;20194;-68
2022/06/06 02:14:27;;;;;;;0.73;0.73;;;;;;;-140.05;100.00;61859.38;5089575;28;20191;-68
2022/06/06 02:16:54;;;;;;;0.40;0.40;;;;;;;-140.05;100.00;61859.38;5089764;28;20254;-68
2022/06/06 02:19:21;;;;;;;1.00;0.90;;;;;;;-140.05;100.00;61859.38;5089668;28;20193;-67
2022/06/06 02:21:48;;;;;;;1.50;1.37;;;;;;;-140.05;100.00;61859.38;5089380;28;20762;-68
2022/06/06 02:24:15;;;;;;;0.30;0.30;;;;;;;-140.05;100.00;61859.38;5089265;28;20206;-67
2022/06/06 02:26:42;;;;;;;0.83;0.83;;;;;;;-140.05;100.00;61859.38;5089661;28;20256;-69
2022/06/06 02:29:08;;;;;;;0.60;0.60;;;;;;;-140.05;100.00;61859.38;5089207;28;20183;-66
2022/06/06 02:31:37;;;;;;;0.57;0.57;;;;;;;-140.05;100.00;61859.38;5089279;28;20191;-66
2022/06/06 02:34:08;;;;;;;1.00;0.77;;;;;;;-140.05;100.00;61859.38;5089203;28;20187;-68
2022/06/06 02:36:35;;;;;;;1.47;1.37;;;;;;;-140.05;100.00;61859.38;5089191;28;20635;-66
2022/06/06 02:39:03;;;;;;;1.13;1.03;;;;;;;-140.05;100.00;61859.38;5089013;28;20227;-67
2022/06/06 02:41:30;;;;;;;0.53;0.53;;;;;;;-140.05;100.00;61859.38;5089300;28;20215;-67
2022/06/06 02:43:57;;;;;;;0.30;0.30;;;;;;;-140.05;100.00;61859.38;5089132;28;20195;-70
2022/06/06 02:46:24;;;;;;;1.80;1.57;;;;;;;-140.05;100.00;61859.38;5089761;28;20231;-66
2022/06/06 02:48:51;;;;;;;0.30;0.30;;;;;;;-140.05;100.00;61859.38;5088947;28;20199;-65
2022/06/06 02:51:18;;;;;;;0.60;0.60;;;;;;;-140.05;100.00;61859.38;5089169;28;20727;-67
2022/06/06 02:53:45;;;;;;;0.23;0.23;;;;;;;-140.05;100.00;61859.38;5089296;28;20195;-64
2022/06/06 02:56:12;;;;;;;1.90;0.70;;;;;;;-140.05;100.00;61859.38;5089279;28;20172;-66
2022/06/06 02:58:39;;;;;;;0.70;0.70;;;;;;;-140.05;100.00;61859.38;5088969;28;20179;-65
2022/06/06 03:01:09;;;;;;;0.40;0.30;;;;;;;-140.05;100.00;61859.38;5089032;28;20276;-65
2022/06/06 03:03:38;;;;;;;2.30;1.47;;;;;;;-140.05;100.00;61859.38;5089186;28;20230;-65
2022/06/06 03:06:05;;;;;;;0.73;0.70;;;;;;;-140.05;100.00;61859.38;5092358;28;20298;-66
2022/06/06 03:08:52;;;;;;;0.70;0.40;;;;;;;-140.05;100.00;61859.38;5092524;28;20199;-65
2022/06/06 03:11:31;;;;;;;0.57;0.57;;;;;;;-140.05;100.00;61859.38;5092563;28;20207;-66
2022/06/06 03:14:01;;;;;;;2.67;1.57;;;;;;;-140.05;100.00;61859.38;5092768;28;20284;-64
2022/06/06 03:22:45;;;;;;;0.40;0.40;;;;;;;-140.05;100.00;61859.38;5092942;28;20229;-66
2022/06/06 03:25:20;;;;;;;1.47;1.37;;;;;;;-140.05;100.00;61859.38;5091323;28;20326;-66
2022/06/06 03:28:02;;;;;;;2.07;1.07;;;;;;;-140.05;100.00;61859.38;5091766;28;20209;-66
2022/06/06 03:31:17;;;;;;;0.20;0.20;;;;;;;-140.05;100.00;61859.38;5092570;28;20211;-65
2022/06/06 03:34:11;;;;;;;0.30;0.30;;;;;;;-140.05;100.00;61859.38;5037469;28;20197;-66
2022/06/06 03:37:13;;;;;;;2.43;0.93;;;;;;;-140.05;100.00;61859.38;5091478;28;20218;-66
2022/06/06 03:39:49;;;;;;;1.43;0.80;;;;;;;-140.05;100.00;61859.38;5061594;28;20218;-64
2022/06/06 03:42:31;;;;;;;1.10;0.83;;;;;;;-140.05;100.00;61859.38;5091953;28;20663;-65
2022/06/06 03:45:10;;;;;;;0.47;0.47;;;;;;;-140.05;100.00;61859.38;5091974;28;20641;-66
2022/06/06 03:47:42;;;;;;;0.57;0.50;;;;;;;-140.05;100.00;61859.38;5091835;28;20199;-65
2022/06/06 03:50:29;;;;;;;0.57;0.47;;;;;;;-140.05;100.00;61859.38;5091804;28;20195;-65
2022/06/06 03:53:05;;;;;;;0.63;0.63;;;;;;;-140.05;100.00;61859.38;5091157;28;20222;-65
2022/06/06 03:55:55;;;;;;;0.43;0.43;;;;;;;-140.05;100.00;61859.38;5090892;28;20199;-67
2022/06/06 03:58:27;;;;;;;1.03;0.97;;;;;;;-140.05;100.00;61859.38;5091517;28;20959;-66
2022/06/06 04:00:57;;;;;;;0.83;0.70;;;;;;;-140.05;100.00;61859.38;5091399;28;20240;-69
2022/06/06 04:03:26;;;;;;;8.67;1.53;;;;;;;-140.05;100.00;61859.38;5090609;28;20198;-67
2022/06/06 04:05:53;;;;;;;0.60;0.60;;;;;;;-140.05;100.00;61859.38;5091326;28;20731;-67
2022/06/06 04:08:20;;;;;;;0.30;0.30;;;;;;;-140.05;100.00;61859.38;5091172;28;20192;-68
2022/06/06 04:11:23;;;;;;;1.20;1.10;;;;;;;-140.05;100.00;61859.38;5091531;28;20716;-67
2022/06/06 04:14:05;;;;;;;1.17;1.07;;;;;;;-140.05;100.00;61859.38;5078550;28;20191;-66
2022/06/06 04:17:14;;;;;;;0.60;0.50;;;;;;;-140.05;100.00;61859.38;5090181;28;20194;-65
2022/06/06 04:20:03;;;;;;;0.53;0.50;;;;;;;-140.05;100.00;61859.38;5091056;28;20670;-65
2022/06/06 04:22:45;;;;;;;0.70;0.70;;;;;;;-140.05;100.00;61859.38;5090906;28;20227;-65
2022/06/06 04:25:30;;;;;;;2.20;0.83;;;;;;;-140.05;100.00;61859.38;5089574;28;20674;-64
2022/06/06 04:28:16;;;;;;;0.50;0.50;;;;;;;-140.05;100.00;61859.38;5091120;28;20268;-64
2022/06/06 04:31:19;;;;;;;1.13;1.07;;;;;;;-140.05;100.00;61859.38;5091126;28;20195;-66
2022/06/06 04:33:58;;;;;;;1.00;0.93;;;;;;;-140.05;100.00;61859.38;5089794;28;20286;-62
2022/06/06 04:36:37;;;;;;;0.67;0.60;;;;;;;-140.05;100.00;61859.38;5090949;28;20191;-66
2022/06/06 04:39:10;;;;;;;0.60;0.60;;;;;;;-140.05;100.00;61859.38;5090849;28;20199;-65
2022/06/06 04:41:44;;;;;;;5.40;4.07;;;;;;;-140.05;100.00;61859.38;5090950;28;20658;-64
2022/06/06 04:44:34;;;;;;;3.57;3.27;;;;;;;-140.05;100.00;61859.38;5090830;28;20219;-64
2022/06/06 04:47:10;;;;;;;2.53;2.33;;;;;;;-140.05;100.00;61859.38;5090608;28;20327;-64
2022/06/06 04:49:37;;;;;;;1.83;1.40;;;;;;;-140.05;100.00;61859.38;5090728;28;20702;-63
2022/06/06 04:52:05;;;;;;;1.17;0.90;;;;;;;-140.05;100.00;61859.38;5090999;28;20203;-66
2022/06/06 04:54:35;;;;;;;1.03;1.00;;;;;;;-140.05;100.00;61859.38;5090932;28;20203;-65
2022/06/06 04:57:03;;;;;;;1.10;0.70;;;;;;;-140.05;100.00;61859.38;5090336;28;20590;-63
2022/06/06 04:59:31;;;;;;;1.53;1.33;;;;;;;-140.05;100.00;61859.38;5090434;28;20203;-66
2022/06/06 05:02:02;;;;;;;1.57;1.43;;;;;;;-140.05;100.00;61859.38;5090461;28;20712;-66
2022/06/06 05:04:29;;;;;;;1.80;0.60;;;;;;;-140.05;100.00;61859.38;5090248;28;20195;-66
2022/06/06 05:06:56;;;;;;;1.50;1.40;;;;;;;-140.05;100.00;61859.38;5090176;28;20203;-64
2022/06/06 05:09:45;;;;;;;5.47;4.23;;;;;;;-140.05;100.00;61859.38;5090132;28;20199;-63
2022/06/06 05:12:18;;;;;;;0.70;0.70;;;;;;;-140.05;100.00;61859.38;5090706;28;20199;-62
2022/06/06 05:15:27;;;;;;;0.70;0.70;;;;;;;-140.05;100.00;61859.38;5090644;28;20684;-62
2022/06/06 05:18:04;;;;;;;1.17;0.80;;;;;;;-140.05;100.00;61859.38;5083015;28;20211;-61
2022/06/06 05:21:01;;;;;;;0.70;0.70;;;;;;;-140.05;100.00;61859.38;5090153;28;20194;-61
2022/06/06 05:24:05;;;;;;;0.93;0.93;;;;;;;-140.05;100.00;61859.38;5090049;28;20227;-64
2022/06/06 05:26:58;;;;;;;2.13;1.80;;;;;;;-140.05;100.00;61859.38;5090453;28;20198;-64
2022/06/06 05:29:57;;;;;;;9.73;7.07;;;;;;;-140.05;100.00;61859.38;5089645;28;20195;-67
2022/06/06 05:32:49;;;;;;;1.60;1.50;;;;;;;-140.05;100.00;61859.38;5089842;28;20199;-65
2022/06/06 05:35:55;;;;;;;0.70;0.70;;;;;;;-140.05;100.00;61859.38;5082849;28;20294;-65
2022/06/06 05:38:22;;;;;;;1.17;1.07;;;;;;;-140.05;100.00;61859.38;5090093;28;20689;-64
2022/06/06 05:41:01;;;;;;;0.40;0.40;;;;;;;-140.05;100.00;61859.38;5090362;28;20279;-63
2022/06/06 05:43:48;;;;;;;0.40;0.40;;;;;;;-140.05;100.00;61859.38;5090609;28;20716;-63
2022/06/06 05:46:33;;;;;;;0.70;0.53;;;;;;;-140.05;100.00;61859.38;5090406;28;20191;-65
2022/06/06 05:48:59;;;;;;;0.97;0.73;;;;;;;-140.05;100.00;61859.38;5089618;28;20257;-65
2022/06/06 05:51:52;;;;;;;1.33;0.90;;;;;;;-140.05;100.00;61859.38;5090183;28;20688;-65
2022/06/06 05:54:40;;;;;;;0.97;0.93;;;;;;;-140.05;100.00;61859.38;5066242;28;20198;-66
2022/06/06 05:57:25;;;;;;;0.73;0.73;;;;;;;-140.05;100.00;61859.38;5090018;28;20203;-66
2022/06/06 06:00:04;;;;;;;0.63;0.63;;;;;;;-140.05;100.00;61859.38;5089991;28;20183;-66
2022/06/06 06:03:01;;;;;;;1.57;1.43;;;;;;;-140.05;100.00;61859.38;5089722;28;20295;-65
2022/06/06 06:05:47;;;;;;;1.53;0.70;;;;;;;-140.05;100.00;61859.38;5089690;28;20244;-68
2022/06/06 06:08:50;;;;;;;0.70;0.70;;;;;;;-140.05;100.00;61859.38;5089281;28;20187;-66
2022/06/06 06:11:23;;;;;;;1.00;1.00;;;;;;;-140.05;100.00;61859.38;5089744;28;20190;-64
2022/06/06 06:14:02;;;;;;;0.40;0.40;;;;;;;-140.05;100.00;61859.38;5089537;28;20179;-64
2022/06/06 06:16:34;;;;;;;0.90;0.60;;;;;;;-140.05;100.00;61859.38;5089782;28;20212;-65
2022/06/06 06:19:10;;;;;;;0.60;0.60;;;;;;;-140.05;100.00;61859.38;5088994;28;20191;-63
2022/06/06 06:21:42;;;;;;;0.43;0.43;;;;;;;-140.05;100.00;61859.38;5089793;28;20264;-66
2022/06/06 06:24:12;;;;;;;0.80;0.73;;;;;;;-140.05;100.00;61859.38;5089475;28;20214;-64
2022/06/06 06:26:39;;;;;;;0.40;0.40;;;;;;;-140.05;100.00;61859.38;5089421;28;20690;-66
2022/06/06 06:29:09;;;;;;;0.80;0.80;;;;;;;-140.05;100.00;61859.38;5089303;28;20896;-67
2022/06/06 06:31:58;;;;;;;1.00;0.80;;;;;;;-140.05;100.00;61859.38;5089642;28;20211;-67
2022/06/06 06:34:45;;;;;;;1.93;1.10;;;;;;;-140.05;100.00;61859.38;5089579;28;20568;-64
2022/06/06 06:37:22;;;;;;;1.03;0.93;;;;;;;-140.05;100.00;61859.38;5089701;28;20252;-64
2022/06/06 06:40:07;;;;;;;1.20;1.10;;;;;;;-140.05;100.00;61859.38;5089952;28;20199;-66
2022/06/06 06:42:56;;;;;;;0.40;0.40;;;;;;;-140.05;100.00;61859.38;5093779;28;20218;-66
2022/06/06 06:45:29;;;;;;;1.00;0.93;;;;;;;-140.05;100.00;61859.38;5093411;28;20183;-65
2022/06/06 06:48:03;;;;;;;0.63;0.53;;;;;;;-140.05;100.00;61859.38;5092789;28;20198;-66
2022/06/06 06:50:41;;;;;;;1.07;0.80;;;;;;;-140.05;100.00;61859.38;5093992;28;20197;-63
2022/06/06 06:53:18;;;;;;;0.63;0.63;;;;;;;-140.05;100.00;61859.38;5093805;28;20236;-65
2022/06/06 06:55:54;;;;;;;0.77;0.77;;;;;;;-140.05;100.00;61859.38;5092896;28;20650;-67
2022/06/06 06:58:50;;;;;;;1.50;1.40;;;;;;;-140.05;100.00;61859.38;5092653;28;20209;-65
2022/06/06 07:11:25;;;;;;;1.23;1.10;;;;;;;-140.05;100.00;61859.38;5092071;28;20271;-66
2022/06/06 07:14:14;;;;;;;0.97;0.80;;;;;;;-140.05;100.00;61859.38;5092401;28;20741;-66
2022/06/06 07:16:41;;;;;;;0.90;0.90;;;;;;;-140.05;100.00;61859.38;5092390;28;20199;-66
2022/06/06 07:19:17;;;;;;;2.17;1.97;;;;;;;-140.05;100.00;61859.38;5092250;28;20253;-66
2022/06/06 07:21:46;;;;;;;1.60;1.50;;;;;;;-140.05;100.00;61859.38;5092598;28;20252;-65
2022/06/06 07:24:21;;;;;;;1.20;1.10;;;;;;;-140.05;100.00;61859.38;5092256;28;20203;-64
2022/06/06 07:26:49;;;;;;;1.43;1.33;;;;;;;-140.05;100.00;61859.38;5092144;28;20676;-66
2022/06/06 07:29:19;;;;;;;2.53;1.33;;;;;;;-140.05;100.00;61859.38;5091959;28;20581;-64
2022/06/06 07:31:51;;;;;;;2.17;1.47;;;;;;;-140.05;100.00;61859.38;5092448;28;20252;-63
2022/06/06 07:34:45;;;;;;;1.50;1.40;;;;;;;-140.05;100.00;61859.38;5092106;28;20260;-64
2022/06/06 07:37:19;;;;;;;1.73;1.37;;;;;;;-140.05;100.00;61859.38;5092267;28;20207;-65
2022/06/06 07:39:45;;;;;;;6.77;1.93;;;;;;;-140.05;100.00;61859.38;5091673;28;20226;-65
2022/06/06 07:42:34;;;;;;;0.50;0.50;;;;;;;-140.05;100.00;61859.38;5091833;28;20283;-64
2022/06/06 07:45:34;;;;;;;0.83;0.83;;;;;;;-140.05;100.00;61859.38;5091940;28;20805;-65
2022/06/06 07:48:32;;;;;;;0.90;0.90;;;;;;;-140.05;100.00;61859.38;5092040;28;20257;-63
2022/06/06 07:51:28;;;;;;;4.80;2.13;;;;;;;-140.05;100.00;61859.38;5091322;28;20199;-64
2022/06/06 07:54:09;;;;;;;1.60;1.27;;;;;;;-140.05;100.00;61859.38;5091774;28;20191;-63
2022/06/06 07:56:44;;;;;;;1.70;1.03;;;;;;;-140.05;100.00;61859.38;5091583;28;20299;-63
2022/06/06 07:59:23;;;;;;;0.80;0.80;;;;;;;-140.05;100.00;61859.38;5091526;28;20211;-63
2022/06/06 08:01:57;;;;;;;1.03;1.00;;;;;;;-140.05;100.00;61859.38;5091870;28;20187;-64
2022/06/06 08:04:56;;;;;;;1.20;1.10;;;;;;;-140.05;100.00;61859.38;5091912;28;20236;-64
2022/06/06 08:07:44;;;;;;;0.57;0.57;;;;;;;-140.05;100.00;61859.38;5092141;28;20199;-63
2022/06/06 08:10:34;;;;;;;0.80;0.80;;;;;;;-140.05;100.00;61859.38;5091564;28;20226;-64
2022/06/06 08:13:40;;;;;;;0.40;0.40;;;;;;;-140.05;100.00;61859.38;5091159;28;20194;-66
2022/06/06 08:16:13;;;;;;;0.70;0.70;;;;;;;-140.05;100.00;61859.38;5091381;28;20194;-65
2022/06/06 08:19:07;;;;;;;1.00;0.80;;;;;;;-140.05;100.00;61859.38;5091184;28;20191;-65
2022/06/06 08:21:39;;;;;;;1.40;1.30;;;;;;;-140.05;100.00;61859.38;5091558;28;20721;-63
2022/06/06 08:24:11;;;;;;;1.07;1.07;;;;;;;-140.05;100.00;61859.38;5091144;28;20217;-63
2022/06/06 08:27:00;;;;;;;2.10;1.90;;;;;;;-140.05;100.00;61859.38;5091300;28;20184;-63
2022/06/06 08:29:29;;;;;;;1.67;1.57;;;;;;;-140.05;100.00;61859.38;5090132;28;20265;-65
2022/06/06 08:31:56;;;;;;;0.40;0.40;;;;;;;-140.05;100.00;61859.38;5091161;28;20187;-64
2022/06/06 08:34:24;;;;;;;0.90;0.70;;;;;;;-140.05;100.00;61859.38;5091197;28;20187;-64
2022/06/06 08:37:28;;;;;;;1.37;1.17;;;;;;;-140.05;100.00;61859.38;5091279;28;20256;-65
2022/06/06 08:40:16;;;;;;;1.57;1.00;;;;;;;-140.05;100.00;61859.38;5090856;28;20256;-64
2022/06/06 08:43:17;;;;;;;0.30;0.30;;;;;;;-140.05;100.00;61859.38;5090781;28;20726;-63
2022/06/06 08:45:57;;;;;;;3.97;1.53;;;;;;;-140.05;100.00;61859.38;5056979;28;20302;-63
2022/06/06 08:49:10;;;;;;;0.83;0.77;;;;;;;-140.05;100.00;61859.38;5090368;28;20202;-64
2022/06/06 08:51:47;;;;;;;0.53;0.50;;;;;;;-140.05;100.00;61859.38;5090657;28;20315;-64
2022/06/06 08:54:45;;;;;;;2.03;0.93;;;;;;;-140.05;100.00;61859.38;5090611;28;20258;-65
2022/06/06 08:57:30;;;;;;;0.60;0.60;;;;;;;-140.05;100.00;61859.38;5090715;28;20195;-65
2022/06/06 09:00:23;;;;;;;0.50;0.50;;;;;;;-140.05;100.00;61859.38;5090337;28;20206;-63
2022/06/06 09:03:00;;;;;;;0.60;0.60;;;;;;;-140.05;100.00;61859.38;5090042;28;20210;-64
2022/06/06 09:06:04;;;;;;;0.67;0.67;;;;;;;-140.05;100.00;61859.38;5090560;28;20201;-64
2022/06/06 09:08:48;;;;;;;0.53;0.50;;;;;;;-140.05;100.00;61859.38;5090389;28;20240;-65
2022/06/06 09:11:34;;;;;;;0.20;0.20;;;;;;;-140.05;100.00;61859.38;5091759;28;20241;-64
2022/06/06 09:14:19;;;;;;;1.00;0.87;;;;;;;-140.05;100.00;61859.38;5090757;28;20195;-65
2022/06/06 09:17:24;;;;;;;0.20;0.20;;;;;;;-140.05;100.00;61859.38;5090166;28;20286;-64
2022/06/06 09:20:18;;;;;;;0.70;0.70;;;;;;;-140.05;100.00;61859.38;5066739;28;20205;-67
2022/06/06 09:23:22;;;;;;;0.20;0.20;;;;;;;-140.05;100.00;61859.38;5067125;28;20302;-66
2022/06/06 09:26:01;;;;;;;0.50;0.50;;;;;;;-140.05;100.00;61859.38;5090247;28;20234;-63
2022/06/06 09:28:45;;;;;;;0.40;0.40;;;;;;;-140.05;100.00;61859.38;5089578;28;20244;-64
2022/06/06 09:31:11;;;;;;;0.40;0.40;;;;;;;-140.05;100.00;61859.38;5090511;28;20568;-64
2022/06/06 09:34:12;;;;;;;0.40;0.40;;;;;;;-140.05;100.00;61859.38;5090144;28;20726;-66
2022/06/06 09:36:54;;;;;;;0.70;0.70;;;;;;;-140.05;100.00;61859.38;5090198;28;20214;-64
2022/06/06 09:39:30;;;;;;;0.50;0.47;;;;;;;-140.05;100.00;61859.38;5089349;28;20551;-66
2022/06/06 09:42:15;;;;;;;0.67;0.47;;;;;;;-140.05;100.00;61859.38;5089696;28;20203;-66
2022/06/06 09:44:57;;;;;;;0.43;0.43;;;;;;;-140.05;100.00;61859.38;5089991;28;20186;-65
2022/06/06 09:48:01;;;;;;;1.70;0.60;;;;;;;-140.05;100.00;61859.38;5089898;28;20211;-66
2022/06/06 09:50:43;;;;;;;1.17;1.07;;;;;;;-140.05;100.00;61859.38;5089740;28;20229;-63
2022/06/06 09:53:34;;;;;;;0.30;0.30;;;;;;;-140.05;100.00;61859.38;5089075;28;20187;-65
2022/06/06 09:59:26;;;;;;;0.40;0.40;;;;;;;-140.05;100.00;61859.38;5091473;28;20274;-63
2022/06/06 10:02:06;;;;;;;0.50;0.50;;;;;;;-140.05;100.00;61859.38;5090167;28;20203;-63
2022/06/06 10:05:15;;;;;;;0.43;0.43;;;;;;;-140.05;100.00;61859.38;5089373;28;20662;-69
2022/06/06 10:08:09;;;;;;;0.33;0.33;;;;;;;-140.05;100.00;61859.38;5027066;28;20201;-65
2022/06/06 10:10:50;;;;;;;0.57;0.57;;;;;;;-140.05;100.00;61859.38;5026803;28;20262;-68
2022/06/06 10:13:23;;;;;;;0.40;0.40;;;;;;;-140.05;100.00;61859.38;5075107;28;20247;-66
2022/06/06 10:16:21;;;;;;;0.43;0.40;;;;;;;-140.05;100.00;61859.38;5092384;28;20195;-67
2022/06/06 10:19:21;;;;;;;0.70;0.70;;;;;;;-140.05;100.00;61859.38;5093877;28;20286;-67
2022/06/06 10:22:06;;;;;;;0.20;0.20;;;;;;;-140.05;100.00;61859.38;5094151;28;20627;-66
2022/06/06 10:24:48;;;;;;;0.73;0.73;;;;;;;-140.05;100.00;61859.38;5092966;28;20253;-66
2022/06/06 10:27:39;;;;;;;0.53;0.53;;;;;;;-140.05;100.00;61859.38;5093478;28;20256;-65
2022/06/06 10:30:22;;;;;;;0.40;0.40;;;;;;;-140.05;100.00;61859.38;5093346;28;20626;-63
2022/06/06 10:33:15;;;;;;;0.30;0.30;;;;;;;-140.05;100.00;61859.38;5094204;28;20244;-64
2022/06/06 10:35:47;;;;;;;0.67;0.67;;;;;;;-140.05;100.00;61859.38;5093392;28;20202;-63
2022/06/06 10:38:45;;;;;;;0.67;0.60;;;;;;;-140.05;100.00;61859.38;5093336;28;20183;-64
2022/06/06 10:41:33;;;;;;;0.40;0.40;;;;;;;-140.05;100.00;61859.38;5093300;28;20199;-64
2022/06/06 10:44:42;;;;;;;0.37;0.37;;;;;;;-140.05;100.00;61859.38;5093683;28;20664;-64
2022/06/06 10:47:30;;;;;;;0.50;0.50;;;;;;;-140.05;100.00;61859.38;5070398;28;20206;-63
2022/06/06 10:50:05;;;;;;;0.40;0.40;;;;;;;-140.05;100.00;61859.38;5092991;28;20219;-66
2022/06/06 10:53:11;;;;;;;0.50;0.50;;;;;;;-140.05;100.00;61859.38;5093329;28;20187;-62
2022/06/06 10:56:08;;;;;;;0.67;0.30;;;;;;;-140.05;100.00;61859.38;5064363;28;20199;-67
2022/06/06 10:58:54;;;;;;;0.63;0.53;;;;;;;-140.05;100.00;61859.38;5093217;28;20304;-66
2022/06/06 11:01:27;;;;;;;0.63;0.63;;;;;;;-140.05;100.00;61859.38;5093656;28;20194;-65
2022/06/06 11:04:31;;;;;;;0.60;0.50;;;;;;;-140.05;100.00;61859.38;5093196;28;20239;-62
2022/06/06 11:07:43;;;;;;;0.30;0.30;;;;;;;-140.05;100.00;61859.38;5092790;28;20740;-61
2022/06/06 11:10:37;;;;;;;0.60;0.60;;;;;;;-140.05;100.00;61859.38;5092438;28;20670;-65
2022/06/06 11:13:24;;;;;;;1.90;1.80;;;;;;;-140.05;100.00;61859.38;5093280;28;20218;-65
2022/06/06 11:16:09;;;;;;;0.43;0.43;;;;;;;-140.05;100.00;61859.38;5092630;28;20203;-63
2022/06/06 11:18:56;;;;;;;0.60;0.50;;;;;;;-140.05;100.00;61859.38;5092499;28;20203;-61
2022/06/06 11:21:42;;;;;;;0.50;0.50;;;;;;;-140.05;100.00;61859.38;5092676;28;20195;-66
2022/06/06 11:24:18;;;;;;;0.40;0.40;;;;;;;-140.05;100.00;61859.38;5092494;28;20313;-68
2022/06/06 11:27:35;;;;;;;0.40;0.40;;;;;;;-140.05;100.00;61859.38;5092405;28;20248;-65
2022/06/06 11:30:39;;;;;;;0.63;0.63;;;;;;;-140.05;100.00;61859.38;5058064;28;20220;-66
2022/06/06 11:33:25;;;;;;;0.30;0.30;;;;;;;-140.05;100.00;61859.38;5092581;28;20260;-66
2022/06/06 11:36:22;;;;;;;0.40;0.40;;;;;;;-140.05;100.00;61859.38;5092004;28;20591;-65
2022/06/06 11:39:17;;;;;;;0.33;0.33;;;;;;;-140.05;100.00;61859.38;5091928;28;20204;-65
2022/06/06 11:41:58;;;;;;;0.23;0.23;;;;;;;-140.05;100.00;61859.38;5091947;28;20688;-66
2022/06/06 11:44:49;;;;;;;0.40;0.40;;;;;;;-140.05;100.00;61859.38;5091975;28;20226;-65
2022/06/06 11:47:47;;;;;;;0.57;0.57;;;;;;;-140.05;100.00;61859.38;5092063;28;20203;-65
2022/06/06 11:50:26;;;;;;;0.40;0.40;;;;;;;-140.05;100.00;61859.38;5091634;28;20248;-65
2022/06/06 11:53:10;;;;;;;0.57;0.53;;;;;;;-140.05;100.00;61859.38;5091862;28;20225;-63
2022/06/06 11:56:01;;;;;;;0.50;0.50;;;;;;;-140.05;100.00;61859.38;5091745;28;20229;-63
2022/06/06 11:58:50;;;;;;;0.63;0.63;;;;;;;-140.05;100.00;61859.38;5091615;28;20227;-65
2022/06/06 12:02:07;;;;;;;0.87;0.87;;;;;;;-140.05;100.00;61859.38;5091722;28;20245;-63
2022/06/06 12:05:04;;;;;;;2.10;0.50;;;;;;;-140.05;100.00;61859.38;5065449;28;20226;-63
2022/06/06 12:08:06;;;;;;;1.20;1.10;;;;;;;-140.05;100.00;61859.38;5091822;28;20293;-65
2022/06/06 12:10:38;;;;;;;0.40;0.40;;;;;;;-140.05;100.00;61859.38;5071639;28;20205;-65
2022/06/06 12:13:26;;;;;;;0.40;0.40;;;;;;;-140.05;100.00;61859.38;5091871;28;20175;-63
2022/06/06 12:16:09;;;;;;;1.07;0.90;;;;;;;-140.05;100.00;61859.38;5091243;28;20209;-65
2022/06/06 12:19:03;;;;;;;0.30;0.30;;;;;;;-140.05;100.00;61859.38;5091705;28;20591;-63
2022/06/06 12:21:40;;;;;;;1.13;0.70;;;;;;;-140.05;100.00;61859.38;5091354;28;20187;-63
2022/06/06 12:24:16;;;;;;;0.53;0.53;;;;;;;-140.05;100.00;61859.38;5090795;28;20317;-64
2022/06/06 12:27:10;;;;;;;2.50;0.80;;;;;;;-140.05;100.00;61859.38;5091413;28;20190;-65
2022/06/06 12:30:02;;;;;;;0.40;0.40;;;;;;;-140.05;100.00;61859.38;5090846;28;20595;-64
2022/06/06 12:33:09;;;;;;;1.37;1.10;;;;;;;-140.05;100.00;61859.38;5091010;28;20199;-62
2022/06/06 12:36:15;;;;;;;0.40;0.40;;;;;;;-140.05;100.00;61859.38;5090916;28;20921;-65
2022/06/06 12:38:42;;;;;;;0.60;0.60;;;;;;;-140.05;100.00;61859.38;5081490;28;20195;-63